Time;durP1;ratioP1;P1;durP2;ratioP2;P2;SDS_P1;SDS_P2;PMS_P1;PMS_P2;Temp;Humidity;BMP_temperature;BMP_pressure;BME280_temperature;BME280_humidity;BME280_pressure;Samples;Min_cycle;Max_cycle;Signal;HPM_P1;HPM_P2
2021/11/11 00:01:32;;;;;;;33.40;30.13;;;2.30;99.90;;;;;;6202756;23;20627;-96
2021/11/11 00:04:11;;;;;;;31.40;26.93;;;2.20;99.90;;;;;;6208368;23;20576;-96
2021/11/11 00:06:41;;;;;;;28.40;25.43;;;2.30;99.90;;;;;;6211025;23;20576;-96
2021/11/11 00:09:09;;;;;;;31.70;28.90;;;2.30;99.90;;;;;;6210597;23;20597;-96
2021/11/11 00:11:43;;;;;;;30.57;27.50;;;2.30;99.90;;;;;;6201580;23;20613;-96
2021/11/11 00:14:24;;;;;;;33.27;26.23;;;2.20;99.90;;;;;;6190830;23;20666;-96
2021/11/11 00:16:59;;;;;;;27.53;24.63;;;2.20;99.90;;;;;;6188763;23;20576;-95
2021/11/11 00:19:28;;;;;;;31.47;28.63;;;2.20;99.90;;;;;;6188336;23;21100;-96
2021/11/11 00:22:04;;;;;;;27.57;24.77;;;2.20;99.90;;;;;;6188890;23;20584;-94
2021/11/11 00:24:31;;;;;;;28.27;25.20;;;2.10;99.90;;;;;;6189695;23;20580;-95
2021/11/11 00:26:59;;;;;;;32.70;29.40;;;2.10;99.90;;;;;;6189359;23;20595;-96
2021/11/11 00:29:32;;;;;;;35.70;32.47;;;2.10;99.90;;;;;;6188228;23;20645;-94
2021/11/11 00:32:04;;;;;;;38.63;34.97;;;2.10;99.90;;;;;;6188358;23;20610;-95
2021/11/11 00:34:36;;;;;;;31.60;27.23;;;2.10;99.90;;;;;;6187525;23;20630;-96
2021/11/11 00:37:12;;;;;;;29.23;26.03;;;2.10;99.90;;;;;;6189145;23;20596;-95
2021/11/11 00:39:48;;;;;;;35.83;28.03;;;2.00;99.90;;;;;;6193846;23;20631;-95
2021/11/11 00:42:23;;;;;;;32.73;29.30;;;2.20;99.90;;;;;;6190265;23;20965;-96
2021/11/11 00:44:51;;;;;;;29.23;26.23;;;2.20;99.90;;;;;;6189679;23;20649;-95
2021/11/11 00:47:25;;;;;;;31.23;28.13;;;2.20;99.90;;;;;;6190966;23;20619;-95
2021/11/11 00:49:53;;;;;;;28.27;25.33;;;2.20;99.90;;;;;;6189347;23;20635;-96
2021/11/11 00:52:20;;;;;;;32.90;29.90;;;2.30;99.90;;;;;;6190285;23;20635;-96
2021/11/11 00:54:48;;;;;;;29.13;26.20;;;2.10;99.90;;;;;;6188476;23;20603;-95
2021/11/11 00:57:15;;;;;;;28.07;25.17;;;2.10;99.90;;;;;;6189177;23;21034;-95
2021/11/11 00:59:43;;;;;;;33.80;30.70;;;2.10;99.90;;;;;;6187757;23;20613;-95
2021/11/11 01:02:21;;;;;;;33.60;30.60;;;2.10;99.90;;;;;;6188033;23;21054;-96
2021/11/11 01:04:49;;;;;;;35.77;32.17;;;2.10;99.90;;;;;;6188762;23;20686;-95
2021/11/11 01:07:17;;;;;;;30.63;27.33;;;2.00;99.90;;;;;;6186116;23;20642;-95
2021/11/11 01:09:44;;;;;;;34.07;30.97;;;2.00;99.90;;;;;;6189725;23;21156;-95
2021/11/11 01:12:12;;;;;;;30.27;26.60;;;2.00;99.90;;;;;;6188790;23;20736;-96
2021/11/11 01:14:40;;;;;;;32.70;29.23;;;2.00;99.90;;;;;;6188948;23;20638;-95
2021/11/11 01:17:08;;;;;;;31.00;27.90;;;2.00;99.90;;;;;;6188726;23;21144;-96
2021/11/11 01:19:41;;;;;;;35.90;30.90;;;2.00;99.90;;;;;;6188821;23;20640;-95
2021/11/11 01:22:08;;;;;;;34.00;27.00;;;1.90;99.90;;;;;;6190545;23;20580;-96
2021/11/11 01:24:36;;;;;;;32.37;28.97;;;1.90;99.90;;;;;;6189703;23;20605;-96
2021/11/11 01:27:04;;;;;;;31.57;28.10;;;2.00;99.90;;;;;;6190674;23;20589;-96
2021/11/11 01:29:31;;;;;;;27.63;24.93;;;2.00;99.90;;;;;;6191968;23;20657;-95
2021/11/11 01:32:02;;;;;;;29.67;26.57;;;2.00;99.90;;;;;;6192511;23;21229;-96
2021/11/11 01:41:14;;;;;;;28.90;26.10;;;2.10;99.90;;;;;;6101515;23;20645;-95
2021/11/11 01:43:41;;;;;;;28.87;25.77;;;1.90;99.90;;;;;;6099440;23;20585;-96
2021/11/11 01:46:09;;;;;;;28.87;25.80;;;1.90;99.90;;;;;;6167569;23;20596;-95
2021/11/11 01:48:36;;;;;;;29.50;24.93;;;1.80;99.90;;;;;;6191061;23;20688;-96
2021/11/11 01:51:16;;;;;;;30.90;27.73;;;1.80;99.90;;;;;;6196134;23;20616;-96
2021/11/11 01:53:52;;;;;;;30.23;27.33;;;1.90;99.90;;;;;;6193056;23;20643;-95
2021/11/11 01:56:22;;;;;;;30.70;27.50;;;1.90;99.90;;;;;;6190399;23;20618;-96
2021/11/11 01:58:51;;;;;;;29.00;25.93;;;1.90;99.90;;;;;;6189508;23;20583;-96
2021/11/11 02:01:21;;;;;;;34.77;31.57;;;1.90;99.90;;;;;;6190912;23;20609;-96
2021/11/11 02:03:48;;;;;;;30.10;26.90;;;1.80;99.90;;;;;;6193493;23;20661;-95
2021/11/11 02:06:17;;;;;;;28.87;25.77;;;1.90;99.90;;;;;;6202467;23;20668;-96
2021/11/11 02:08:46;;;;;;;31.73;28.43;;;2.20;99.90;;;;;;6191536;23;20600;-96
2021/11/11 02:11:14;;;;;;;28.73;25.87;;;2.00;99.90;;;;;;6189198;23;20621;-95
2021/11/11 02:13:46;;;;;;;30.67;27.20;;;2.50;99.90;;;;;;6190384;23;20664;-95
2021/11/11 02:16:13;;;;;;;31.03;27.97;;;1.90;99.90;;;;;;6193214;23;20576;-95
2021/11/11 02:18:45;;;;;;;30.40;25.37;;;1.90;99.90;;;;;;6198157;23;20634;-95
2021/11/11 02:21:19;;;;;;;30.10;27.17;;;1.90;99.90;;;;;;6197400;23;20665;-95
2021/11/11 02:23:50;;;;;;;29.70;26.60;;;1.90;99.90;;;;;;6192147;23;20636;-96
2021/11/11 02:26:19;;;;;;;30.60;26.27;;;1.90;99.90;;;;;;6190786;23;20599;-96
2021/11/11 02:28:47;;;;;;;28.77;26.00;;;1.90;99.90;;;;;;6191231;23;20620;-96
2021/11/11 02:31:33;;;;;;;29.73;26.00;;;1.90;99.90;;;;;;6190628;23;20939;-96
2021/11/11 02:34:02;;;;;;;28.53;25.70;;;1.80;99.90;;;;;;6189856;23;20603;-96
2021/11/11 02:36:33;;;;;;;27.50;24.90;;;1.80;99.90;;;;;;6189782;23;20583;-96
2021/11/11 02:39:12;;;;;;;28.37;25.37;;;1.70;99.90;;;;;;6164930;23;20587;-95
2021/11/11 02:41:40;;;;;;;29.30;26.20;;;1.70;99.90;;;;;;6191847;23;20606;-96
2021/11/11 02:44:09;;;;;;;29.40;25.50;;;1.90;99.90;;;;;;6191684;23;20592;-96
2021/11/11 02:46:36;;;;;;;27.53;24.73;;;1.70;99.90;;;;;;6192146;23;20614;-96
2021/11/11 02:49:04;;;;;;;26.13;23.40;;;1.80;99.90;;;;;;6195273;23;20620;-95
2021/11/11 02:51:40;;;;;;;29.80;26.80;;;1.90;99.90;;;;;;6193565;23;20691;-96
2021/11/11 02:56:48;;;;;;;183.07;32.37;;;1.90;99.90;;;;;;6189966;23;20584;-96
2021/11/11 02:59:15;;;;;;;150.03;33.57;;;1.90;99.90;;;;;;6192343;23;21005;-95
2021/11/11 03:01:46;;;;;;;270.70;42.10;;;1.90;99.90;;;;;;6192750;23;20575;-96
2021/11/11 03:04:18;;;;;;;296.30;42.83;;;1.80;99.90;;;;;;6192954;23;20599;-96
2021/11/11 03:06:56;;;;;;;383.50;47.73;;;1.80;99.90;;;;;;6195467;23;20567;-96
2021/11/11 03:09:42;;;;;;;186.63;40.13;;;1.70;99.90;;;;;;6196795;23;20651;-95
2021/11/11 03:12:13;;;;;;;115.97;34.77;;;1.70;99.90;;;;;;6196919;23;20639;-96
2021/11/11 03:14:47;;;;;;;53.23;32.50;;;1.70;99.90;;;;;;6170481;23;20584;-95
2021/11/11 03:17:16;;;;;;;124.93;38.20;;;1.80;99.90;;;;;;6196191;23;20594;-96
2021/11/11 03:19:44;;;;;;;88.67;35.13;;;1.80;99.90;;;;;;6195091;23;20628;-95
2021/11/11 03:22:17;;;;;;;176.47;40.20;;;1.90;99.90;;;;;;6195231;23;20587;-96
2021/11/11 03:24:46;;;;;;;97.40;37.07;;;1.70;99.90;;;;;;6195171;23;20580;-96
2021/11/11 07:02:13;;;;;;;71.30;28.90;;;2.10;99.90;;;;;;6121581;23;20556;-96
2021/11/11 15:13:34;;;;;;;25.30;23.00;;;11.30;99.90;;;;;;6214461;23;20544;-96
2021/11/11 16:20:24;;;;;;;38.40;35.20;;;5.70;99.90;;;;;;6152086;23;20513;-96
2021/11/11 16:23:03;;;;;;;42.47;38.90;;;5.60;99.90;;;;;;6152061;23;20570;-96
2021/11/11 16:25:57;;;;;;;43.23;39.70;;;5.60;99.90;;;;;;6150565;23;20607;-96
2021/11/11 16:28:25;;;;;;;42.90;39.30;;;5.40;99.90;;;;;;6150731;23;20889;-95
2021/11/11 16:30:58;;;;;;;47.10;43.13;;;5.30;99.90;;;;;;6152271;23;20564;-96
2021/11/11 16:33:26;;;;;;;44.93;41.23;;;5.20;99.90;;;;;;6153335;23;20635;-94
2021/11/11 16:36:02;;;;;;;46.73;42.77;;;5.20;99.90;;;;;;6153228;23;20601;-95
2021/11/11 16:41:22;;;;;;;50.87;46.37;;;5.00;99.90;;;;;;6181851;23;20557;-95
2021/11/11 16:43:53;;;;;;;52.43;48.07;;;4.80;99.90;;;;;;6182082;23;20594;-95
2021/11/11 16:46:22;;;;;;;53.27;48.60;;;4.70;99.90;;;;;;6182431;23;20626;-95
2021/11/11 16:48:49;;;;;;;53.87;49.07;;;4.70;99.90;;;;;;6183023;23;20603;-96
2021/11/11 16:51:19;;;;;;;55.93;50.00;;;4.70;99.90;;;;;;6183694;23;20573;-94
2021/11/11 16:53:54;;;;;;;58.53;53.03;;;4.70;99.90;;;;;;6183211;23;20595;-96
2021/11/11 16:56:30;;;;;;;62.57;54.33;;;4.70;99.90;;;;;;6183235;23;20578;-96
2021/11/11 16:59:02;;;;;;;100.90;55.40;;;4.50;99.90;;;;;;6182921;23;20594;-96
2021/11/11 17:01:31;;;;;;;74.47;56.00;;;4.50;99.90;;;;;;6175317;23;20577;-94
2021/11/11 17:04:10;;;;;;;63.57;55.60;;;4.30;99.90;;;;;;6123858;23;20656;-95
2021/11/11 17:06:40;;;;;;;72.20;58.70;;;4.30;99.90;;;;;;6123375;23;20576;-95
2021/11/11 17:09:08;;;;;;;65.93;56.63;;;4.30;99.90;;;;;;6123485;23;20615;-95
2021/11/11 17:11:35;;;;;;;67.80;58.50;;;4.30;99.90;;;;;;6122871;23;20580;-93
2021/11/11 17:14:05;;;;;;;64.70;58.63;;;4.20;99.90;;;;;;6122138;23;20623;-95
2021/11/11 17:16:32;;;;;;;83.37;59.57;;;4.20;99.90;;;;;;6121671;23;20596;-95
2021/11/11 17:19:12;;;;;;;66.67;59.63;;;4.20;99.90;;;;;;6122424;23;20564;-95
2021/11/11 17:21:44;;;;;;;62.20;54.80;;;4.20;99.90;;;;;;6121786;23;20612;-95
2021/11/11 17:24:16;;;;;;;109.23;47.10;;;4.20;99.90;;;;;;6122545;23;20585;-95
2021/11/11 17:26:46;;;;;;;131.03;53.13;;;4.00;99.90;;;;;;6123620;23;20576;-96
2021/11/11 17:29:24;;;;;;;218.07;53.07;;;4.00;99.90;;;;;;6124765;23;20569;-95
2021/11/11 17:31:53;;;;;;;221.90;59.30;;;3.90;99.90;;;;;;6121855;23;20609;-96
2021/11/11 17:34:25;;;;;;;149.80;58.97;;;3.90;99.90;;;;;;6120396;23;20628;-95
2021/11/11 17:36:56;;;;;;;433.57;74.33;;;3.90;99.90;;;;;;6119978;23;20580;-96
2021/11/11 17:39:30;;;;;;;179.97;49.40;;;4.10;99.90;;;;;;6115533;23;20642;-95
2021/11/11 17:42:00;;;;;;;161.03;57.90;;;3.80;99.90;;;;;;6111453;23;21173;-95
2021/11/11 17:44:33;;;;;;;164.67;64.10;;;3.80;99.90;;;;;;6108301;23;20599;-95
2021/11/11 17:47:05;;;;;;;164.20;50.40;;;3.70;99.90;;;;;;6109717;23;20599;-95
2021/11/11 17:49:42;;;;;;;245.00;69.07;;;3.70;99.90;;;;;;6107730;23;20608;-94
2021/11/11 17:52:16;;;;;;;131.63;63.33;;;3.70;99.90;;;;;;6105967;23;20654;-94
2021/11/11 17:54:45;;;;;;;140.10;48.53;;;3.60;99.90;;;;;;6105314;23;21163;-96
2021/11/11 17:57:19;;;;;;;206.27;67.00;;;3.60;99.90;;;;;;6104145;23;20599;-95
2021/11/11 17:59:46;;;;;;;222.17;67.00;;;3.60;99.90;;;;;;6103944;23;20657;-95
2021/11/11 18:02:17;;;;;;;168.77;51.07;;;3.60;99.90;;;;;;6117944;23;20712;-96
2021/11/11 18:04:51;;;;;;;192.33;55.60;;;3.60;99.90;;;;;;6139671;23;20585;-96
2021/11/11 18:07:29;;;;;;;296.70;57.53;;;3.60;99.90;;;;;;6139409;23;21154;-96
2021/11/11 18:10:00;;;;;;;215.87;54.13;;;3.70;99.90;;;;;;6130702;23;21130;-96
2021/11/11 18:12:41;;;;;;;310.57;58.17;;;3.70;99.90;;;;;;6131636;23;20629;-96
2021/11/11 18:15:14;;;;;;;236.97;53.97;;;3.60;99.90;;;;;;6132172;23;20668;-95
2021/11/11 18:17:48;;;;;;;105.43;47.63;;;3.60;99.90;;;;;;6132791;23;20608;-96
2021/11/11 18:20:17;;;;;;;121.73;50.53;;;3.60;99.90;;;;;;6137935;23;20631;-95
2021/11/11 18:22:47;;;;;;;123.53;57.47;;;3.70;99.90;;;;;;6132766;23;20609;-95
2021/11/11 18:25:19;;;;;;;63.37;52.70;;;3.70;99.90;;;;;;6135369;23;20586;-94
2021/11/11 18:27:48;;;;;;;109.87;46.60;;;3.70;99.90;;;;;;6142873;23;20579;-93
2021/11/11 18:30:27;;;;;;;199.47;60.23;;;3.60;99.90;;;;;;6142735;23;21180;-93
2021/11/11 18:33:02;;;;;;;155.33;62.70;;;3.60;99.90;;;;;;6139068;23;20634;-94
2021/11/11 18:35:41;;;;;;;157.53;46.83;;;3.60;99.90;;;;;;6141468;23;20611;-94
2021/11/11 18:38:17;;;;;;;174.87;59.40;;;3.60;99.90;;;;;;6136128;23;20581;-94
2021/11/11 18:40:46;;;;;;;189.77;57.30;;;3.60;99.90;;;;;;6139308;23;20957;-94
2021/11/11 18:43:14;;;;;;;78.00;42.87;;;3.60;99.90;;;;;;6137560;23;20619;-94
2021/11/11 18:45:44;;;;;;;157.17;49.90;;;3.50;99.90;;;;;;6136212;23;20602;-94
2021/11/11 18:48:27;;;;;;;151.47;53.17;;;3.50;99.90;;;;;;6134705;23;20617;-95
2021/11/11 18:51:04;;;;;;;129.70;46.53;;;3.50;99.90;;;;;;6132428;23;20598;-94
2021/11/11 18:53:34;;;;;;;86.40;45.53;;;3.50;99.90;;;;;;6130142;23;20616;-94
2021/11/11 18:56:03;;;;;;;118.63;45.90;;;3.50;99.90;;;;;;6129934;23;20589;-95
2021/11/11 18:58:32;;;;;;;93.53;53.10;;;3.50;99.90;;;;;;6136219;23;20624;-94
2021/11/11 19:01:06;;;;;;;98.23;43.00;;;3.50;99.90;;;;;;6129299;23;20600;-95
2021/11/11 19:03:36;;;;;;;198.23;56.97;;;3.50;99.90;;;;;;6128244;23;20658;-94
2021/11/11 19:06:09;;;;;;;113.17;51.53;;;3.40;99.90;;;;;;6128681;23;20603;-92
2021/11/11 19:08:50;;;;;;;76.93;52.17;;;3.40;99.90;;;;;;6126827;23;20646;-93
2021/11/11 19:11:22;;;;;;;82.33;47.23;;;3.40;99.90;;;;;;6126168;23;20973;-93
2021/11/11 19:13:50;;;;;;;108.77;55.97;;;3.40;99.90;;;;;;6125332;23;20626;-93
2021/11/11 19:16:24;;;;;;;68.03;42.20;;;3.40;99.90;;;;;;6124833;23;20645;-94
2021/11/11 19:18:54;;;;;;;54.33;48.30;;;3.40;99.90;;;;;;6125430;23;20593;-93
2021/11/11 19:21:23;;;;;;;61.37;48.37;;;3.40;99.90;;;;;;6123218;23;20997;-93
2021/11/11 19:23:52;;;;;;;65.43;50.77;;;3.40;99.90;;;;;;6124028;23;20674;-92
2021/11/11 19:26:21;;;;;;;43.07;38.50;;;3.30;99.90;;;;;;6118368;23;20583;-94
2021/11/11 19:28:50;;;;;;;56.27;37.13;;;3.40;99.90;;;;;;6124551;23;20587;-93
2021/11/11 19:31:17;;;;;;;56.97;41.47;;;3.30;99.90;;;;;;6125646;23;20713;-93
2021/11/11 19:33:48;;;;;;;102.10;45.07;;;3.20;99.90;;;;;;6126554;23;20589;-94
2021/11/11 19:36:23;;;;;;;75.70;44.63;;;3.40;99.90;;;;;;6123805;23;20587;-94
2021/11/11 19:41:52;;;;;;;48.60;40.63;;;3.30;99.90;;;;;;6122412;23;20654;-93
2021/11/11 19:50:05;;;;;;;52.43;35.63;;;3.20;99.90;;;;;;6127509;23;20551;-94
2021/11/11 19:58:30;;;;;;;50.33;34.90;;;3.00;99.90;;;;;;6081391;23;20571;-94
2021/11/11 20:06:53;;;;;;;68.17;44.17;;;2.90;99.90;;;;;;6011862;23;21137;-93
2021/11/11 20:09:25;;;;;;;72.83;44.27;;;2.90;99.90;;;;;;6111189;23;20593;-93
2021/11/11 20:12:01;;;;;;;89.43;39.40;;;3.00;99.90;;;;;;6128916;23;21291;-93
2021/11/11 20:17:42;;;;;;;73.33;39.00;;;3.00;99.90;;;;;;6119276;23;20593;-92
2021/11/11 20:20:39;;;;;;;72.20;33.63;;;3.00;99.90;;;;;;6126400;23;21132;-93
2021/11/11 20:34:48;;;;;;;50.00;39.90;;;2.90;99.90;;;;;;6118258;23;20646;-94
2021/11/11 20:37:41;;;;;;;148.03;38.20;;;2.90;99.90;;;;;;6137520;23;20644;-96
2021/11/11 20:48:59;;;;;;;50.63;32.03;;;2.80;99.90;;;;;;6133570;23;20923;-93
2021/11/11 20:51:46;;;;;;;58.37;36.17;;;2.90;99.90;;;;;;6134508;23;20585;-94
2021/11/11 21:02:54;;;;;;;141.43;37.90;;;2.80;99.90;;;;;;6129883;23;20701;-95
2021/11/11 21:05:24;;;;;;;116.30;41.30;;;2.80;99.90;;;;;;6127689;23;20649;-95
2021/11/11 21:07:59;;;;;;;163.43;47.70;;;2.70;99.90;;;;;;6136705;23;20577;-94
2021/11/11 21:10:55;;;;;;;45.40;36.40;;;2.70;99.90;;;;;;6128422;23;20648;-95
2021/11/11 21:13:42;;;;;;;441.00;53.57;;;2.80;99.90;;;;;;6130913;23;20627;-95
2021/11/11 21:16:33;;;;;;;124.43;41.50;;;2.70;99.90;;;;;;6127688;23;20633;-94
2021/11/11 21:19:10;;;;;;;41.50;36.07;;;2.70;99.90;;;;;;6128044;23;20586;-94
2021/11/11 21:22:01;;;;;;;73.20;46.10;;;2.60;99.90;;;;;;6126276;23;20581;-95
2021/11/11 21:24:29;;;;;;;66.00;41.57;;;2.70;99.90;;;;;;6127709;23;20585;-96
2021/11/11 21:27:02;;;;;;;51.63;38.70;;;2.70;99.90;;;;;;6103861;23;20592;-93
2021/11/11 21:29:32;;;;;;;48.83;37.80;;;2.80;99.90;;;;;;6131044;23;20582;-93
2021/11/11 21:32:03;;;;;;;93.13;39.20;;;2.80;99.90;;;;;;6128965;23;20637;-93
2021/11/11 21:34:47;;;;;;;124.73;40.73;;;2.70;99.90;;;;;;6126960;23;20625;-93
2021/11/11 21:37:25;;;;;;;119.73;51.17;;;2.90;99.90;;;;;;6126180;23;21154;-94
2021/11/11 21:39:59;;;;;;;128.80;42.60;;;2.80;99.90;;;;;;6135511;23;21618;-93
2021/11/11 21:42:29;;;;;;;153.37;46.33;;;2.80;99.90;;;;;;6185036;23;20616;-93
2021/11/11 21:45:00;;;;;;;166.77;48.37;;;2.90;99.90;;;;;;6186787;23;20599;-93
2021/11/11 21:47:31;;;;;;;257.93;50.60;;;3.00;99.90;;;;;;6186499;23;20581;-92
2021/11/11 21:49:59;;;;;;;168.83;48.33;;;2.90;99.90;;;;;;6189404;23;20602;-93
2021/11/11 21:52:34;;;;;;;99.13;51.57;;;2.90;99.90;;;;;;6189065;23;20959;-94
2021/11/11 21:55:09;;;;;;;205.87;50.23;;;2.90;99.90;;;;;;6189963;23;21083;-94
2021/11/11 21:57:41;;;;;;;280.67;51.40;;;2.80;99.90;;;;;;6190981;23;20589;-94
2021/11/11 22:00:18;;;;;;;156.27;48.47;;;2.90;99.90;;;;;;6191513;23;20643;-94
2021/11/11 22:02:52;;;;;;;129.97;55.17;;;2.80;99.90;;;;;;6192625;23;20589;-94
2021/11/11 22:24:52;;;;;;;615.97;85.90;;;2.90;99.90;;;;;;6182690;23;20603;-94
2021/11/11 22:27:31;;;;;;;572.00;67.53;;;2.90;99.90;;;;;;6186965;23;20587;-95
2021/11/11 22:30:06;;;;;;;444.27;61.97;;;2.90;99.90;;;;;;6188088;23;20633;-94
2021/11/11 22:32:40;;;;;;;545.17;79.67;;;2.90;99.90;;;;;;6202724;23;20598;-94
2021/11/11 22:35:08;;;;;;;342.07;57.20;;;2.80;99.90;;;;;;6192309;23;20614;-95
2021/11/11 22:37:37;;;;;;;551.27;89.40;;;2.80;99.90;;;;;;6186502;23;20595;-93
2021/11/11 22:40:07;;;;;;;353.83;58.47;;;2.90;99.90;;;;;;6191722;23;20656;-95
2021/11/11 22:42:34;;;;;;;259.40;53.13;;;2.90;99.90;;;;;;6214464;23;20583;-94
2021/11/11 22:45:04;;;;;;;309.80;54.23;;;2.90;99.90;;;;;;6214944;23;20595;-94
2021/11/11 22:47:32;;;;;;;324.33;66.63;;;2.90;99.90;;;;;;6215585;23;20707;-94
2021/11/11 22:50:01;;;;;;;121.57;58.10;;;3.00;99.90;;;;;;6214746;23;20623;-94
2021/11/11 22:52:30;;;;;;;437.87;88.13;;;3.10;99.90;;;;;;6215308;23;20581;-94
2021/11/11 22:55:02;;;;;;;257.67;56.27;;;3.10;99.90;;;;;;6215801;23;20637;-94
2021/11/11 22:57:35;;;;;;;334.10;75.17;;;3.10;99.90;;;;;;6216753;23;20588;-95
2021/11/11 23:00:20;;;;;;;518.67;72.60;;;3.10;99.90;;;;;;6218621;23;21094;-94
2021/11/11 23:02:56;;;;;;;537.30;82.03;;;3.10;99.90;;;;;;6218804;23;20577;-94
2021/11/11 23:14:00;;;;;;;519.47;61.50;;;3.10;99.90;;;;;;6216378;23;20577;-95
2021/11/11 23:16:38;;;;;;;488.47;63.73;;;3.10;99.90;;;;;;6216403;23;20628;-96
2021/11/11 23:24:53;;;;;;;740.27;119.57;;;3.00;99.90;;;;;;6216770;23;20540;-95
2021/11/11 23:33:08;;;;;;;408.17;57.80;;;3.00;99.90;;;;;;6218193;23;20521;-96
2021/11/11 23:35:36;;;;;;;321.03;56.80;;;2.90;99.90;;;;;;6218270;23;20612;-95
2021/11/11 23:38:05;;;;;;;307.90;75.13;;;3.00;99.90;;;;;;6218393;23;20584;-95
2021/11/11 23:40:33;;;;;;;596.33;88.20;;;2.90;99.90;;;;;;6217837;23;20673;-95
2021/11/11 23:43:03;;;;;;;538.87;117.57;;;3.00;99.90;;;;;;6218400;23;20604;-95
2021/11/11 23:45:31;;;;;;;305.53;63.27;;;2.90;99.90;;;;;;6217573;23;20598;-96
2021/11/11 23:48:05;;;;;;;248.80;53.53;;;2.90;99.90;;;;;;6229869;23;20572;-96
